createdAt,value
2022-10-26T00:00:48.377Z,9.48
2022-10-26T00:03:54.057Z,9.31
2022-10-26T00:06:59.684Z,9.31
2022-10-26T00:10:05.426Z,9.38
2022-10-26T00:13:16.002Z,9.52
2022-10-26T00:16:32.189Z,9.48
2022-10-26T00:19:38.386Z,9.55
2022-10-26T00:22:44.668Z,9.61
2022-10-26T00:25:58.420Z,9.70
2022-10-26T00:29:03.950Z,9.71
2022-10-26T00:32:12.199Z,9.73
2022-10-26T00:35:23.275Z,9.69
2022-10-26T00:38:37.881Z,9.59
2022-10-26T00:41:43.842Z,9.59
2022-10-26T00:45:07.448Z,9.69
2022-10-26T00:48:26.344Z,8.96
2022-10-26T00:51:39.264Z,8.02
2022-10-26T00:54:49.172Z,7.89
2022-10-26T00:57:57.744Z,8.09
2022-10-26T01:01:03.491Z,8.39
2022-10-26T01:04:11.896Z,8.46
2022-10-26T01:07:19.018Z,8.54
2022-10-26T01:10:25.472Z,8.60
2022-10-26T01:13:37.097Z,8.60
2022-10-26T01:17:04.572Z,8.58
2022-10-26T01:20:56.747Z,8.74
2022-10-26T01:24:51.549Z,8.75
2022-10-26T01:27:57.981Z,8.83
2022-10-26T01:31:14.942Z,9.02
2022-10-26T01:34:32.546Z,9.13
2022-10-26T01:37:49.319Z,9.23
2022-10-26T01:41:06.958Z,9.30
2022-10-26T01:44:22.623Z,9.26
2022-10-26T01:47:37.276Z,9.22
2022-10-26T01:50:46.989Z,9.12
2022-10-26T01:53:52.710Z,8.99
2022-10-26T01:57:07.053Z,9.09
2022-10-26T02:00:16.922Z,9.08
2022-10-26T02:03:45.989Z,9.14
2022-10-26T02:07:06.408Z,8.98
2022-10-26T02:10:34.196Z,9.06
2022-10-26T02:13:56.276Z,9.11
2022-10-26T02:17:14.547Z,9.14
2022-10-26T02:20:32.022Z,9.15
2022-10-26T02:23:44.511Z,9.22
2022-10-26T02:26:56.856Z,9.32
2022-10-26T02:30:07.862Z,9.35
2022-10-26T02:33:18.236Z,9.45
2022-10-26T02:36:33.769Z,9.63
2022-10-26T02:39:44.712Z,9.71
2022-10-26T02:42:55.100Z,9.83
2022-10-26T02:46:24.446Z,9.85
2022-10-26T02:49:37.499Z,9.83
2022-10-26T02:53:02.414Z,9.87
2022-10-26T02:56:19.755Z,9.80
2022-10-26T02:59:38.285Z,9.78
2022-10-26T03:02:48.631Z,9.68
2022-10-26T03:05:54.871Z,9.61
2022-10-26T03:09:04.913Z,9.63
2022-10-26T03:12:10.670Z,9.58
2022-10-26T03:15:16.840Z,9.54
2022-10-26T03:18:22.455Z,9.37
2022-10-26T03:21:28.956Z,9.36
2022-10-26T03:24:37.223Z,9.24
2022-10-26T03:27:42.929Z,9.03
2022-10-26T03:30:48.512Z,8.96
2022-10-26T03:33:54.240Z,8.96
2022-10-26T03:36:59.870Z,9.05
2022-10-26T03:40:09.863Z,9.14
2022-10-26T03:43:15.545Z,9.18
2022-10-26T03:46:21.236Z,9.18
2022-10-26T03:49:27.012Z,9.22
2022-10-26T03:52:32.549Z,9.19
2022-10-26T03:55:41.252Z,9.16
2022-10-26T03:58:46.899Z,8.82
2022-10-26T04:01:55.381Z,8.54
2022-10-26T04:05:03.462Z,8.30
2022-10-26T04:08:09.257Z,8.16
2022-10-26T04:11:17.505Z,8.04
2022-10-26T04:14:23.140Z,7.81
2022-10-26T04:17:28.953Z,7.61
2022-10-26T04:20:39.246Z,7.74
2022-10-26T04:23:46.194Z,7.95
2022-10-26T04:26:54.380Z,8.19
2022-10-26T04:30:06.488Z,8.34
2022-10-26T04:33:18.103Z,8.40
2022-10-26T04:36:23.724Z,8.43
2022-10-26T04:39:29.323Z,8.39
2022-10-26T04:42:44.512Z,8.55
2022-10-26T04:45:50.181Z,8.57
2022-10-26T04:48:58.220Z,8.61
2022-10-26T04:52:03.878Z,8.72
2022-10-26T04:55:11.494Z,8.56
2022-10-26T04:58:25.022Z,8.48
2022-10-26T05:01:30.800Z,8.37
2022-10-26T05:04:39.682Z,8.29
2022-10-26T05:07:46.086Z,8.29
2022-10-26T05:10:52.871Z,8.36
2022-10-26T05:14:02.957Z,8.24
2022-10-26T05:17:08.742Z,8.06
2022-10-26T05:20:15.461Z,7.80
2022-10-26T05:23:21.300Z,7.59
2022-10-26T05:26:27.900Z,7.79
2022-10-26T05:29:36.200Z,7.95
2022-10-26T05:32:41.916Z,8.05
2022-10-26T05:35:47.829Z,7.90
2022-10-26T05:38:53.572Z,7.65
2022-10-26T05:41:59.874Z,7.68
2022-10-26T05:45:09.616Z,7.73
2022-10-26T05:48:16.322Z,7.53
2022-10-26T05:51:21.968Z,7.31
2022-10-26T05:54:27.582Z,7.14
2022-10-26T05:57:34.251Z,7.25
2022-10-26T06:01:03.383Z,7.55
2022-10-26T06:04:36.267Z,7.68
2022-10-26T06:07:42.895Z,7.61
2022-10-26T06:10:51.996Z,7.68
2022-10-26T06:14:00.515Z,7.72
2022-10-26T06:17:43.035Z,7.74
2022-10-26T06:21:13.563Z,8.02
2022-10-26T06:24:37.226Z,8.31
2022-10-26T06:27:59.740Z,8.40
2022-10-26T06:31:06.282Z,8.65
2022-10-26T06:34:28.958Z,9.08
2022-10-26T06:37:36.542Z,9.57
2022-10-26T06:40:46.969Z,9.77
2022-10-26T06:43:59.663Z,10.22
2022-10-26T06:47:18.631Z,10.87
2022-10-26T06:50:42.618Z,11.22
2022-10-26T06:54:04.883Z,12.29
2022-10-26T06:57:15.936Z,12.42
2022-10-26T07:00:29.912Z,13.03
2022-10-26T07:03:35.546Z,13.78
2022-10-26T07:06:46.254Z,14.10
2022-10-26T07:09:53.406Z,14.43
2022-10-26T07:12:59.082Z,14.42
2022-10-26T07:16:11.492Z,15.20
2022-10-26T07:19:21.861Z,15.02
2022-10-26T07:22:30.190Z,15.20
2022-10-26T07:25:40.665Z,15.20
2022-10-26T07:28:49.280Z,15.61
2022-10-26T07:31:56.437Z,15.31
2022-10-26T07:35:14.576Z,15.45
2022-10-26T07:38:23.099Z,15.77
2022-10-26T07:41:31.859Z,16.12
2022-10-26T07:44:40.502Z,16.89
2022-10-26T07:47:46.466Z,17.02
2022-10-26T07:50:52.334Z,17.62
2022-10-26T07:54:00.585Z,18.59
2022-10-26T07:57:06.465Z,18.07
2022-10-26T08:00:14.533Z,18.07
2022-10-26T08:03:20.605Z,18.69
2022-10-26T08:06:27.546Z,19.33
2022-10-26T08:09:36.024Z,19.23
2022-10-26T08:12:42.051Z,19.31
2022-10-26T08:15:48.662Z,19.29
2022-10-26T08:18:55.306Z,17.64
2022-10-26T08:22:01.094Z,17.25
2022-10-26T08:25:23.910Z,17.40
2022-10-26T08:28:30.026Z,17.54
2022-10-26T08:31:35.617Z,18.97
2022-10-26T08:34:48.082Z,19.26
2022-10-26T08:37:55.264Z,19.88
2022-10-26T08:41:18.494Z,19.22
2022-10-26T08:44:42.679Z,19.19
2022-10-26T08:47:56.899Z,19.53
2022-10-26T08:51:11.783Z,20.04
2022-10-26T08:54:41.308Z,20.44
2022-10-26T08:57:54.644Z,19.75
2022-10-26T09:01:06.447Z,20.53
2022-10-26T09:04:23.057Z,20.42
2022-10-26T09:07:57.364Z,21.16
2022-10-26T09:11:31.259Z,21.07
2022-10-26T09:15:05.477Z,21.59
2022-10-26T09:18:41.634Z,22.17
2022-10-26T09:22:04.291Z,21.95
2022-10-26T09:25:23.154Z,21.67
2022-10-26T09:28:35.953Z,22.11
2022-10-26T09:31:51.080Z,22.01
2022-10-26T09:35:15.369Z,21.64
2022-10-26T09:38:32.533Z,22.67
2022-10-26T09:41:47.220Z,23.36
2022-10-26T09:45:01.724Z,23.03
2022-10-26T09:48:25.847Z,23.99
2022-10-26T09:51:31.601Z,22.84
2022-10-26T09:54:37.711Z,23.40
2022-10-26T09:57:48.659Z,23.78
2022-10-26T10:00:56.987Z,24.30
2022-10-26T10:04:23.227Z,23.06
2022-10-26T10:07:29.443Z,23.07
2022-10-26T10:10:35.198Z,22.48
2022-10-26T10:13:44.605Z,23.13
2022-10-26T10:16:59.065Z,22.75
2022-10-26T10:20:22.695Z,23.39
2022-10-26T10:23:35.590Z,22.76
2022-10-26T10:27:01.479Z,22.64
2022-10-26T10:30:27.068Z,23.87
2022-10-26T10:33:41.725Z,24.17
2022-10-26T10:36:49.917Z,23.03
2022-10-26T10:40:02.481Z,22.95
2022-10-26T10:43:17.431Z,22.95
2022-10-26T10:46:29.511Z,23.29
2022-10-26T10:49:37.231Z,22.97
2022-10-26T10:52:46.422Z,21.95
2022-10-26T10:56:11.584Z,21.45
2022-10-26T11:00:04.395Z,21.62
2022-10-26T11:03:49.992Z,21.88
2022-10-26T11:07:02.545Z,22.66
2022-10-26T11:10:22.670Z,22.57
2022-10-26T11:13:38.837Z,22.82
2022-10-26T11:16:52.043Z,22.01
2022-10-26T11:20:12.487Z,21.73
2022-10-26T11:23:33.443Z,22.09
2022-10-26T11:26:52.799Z,21.85
2022-10-26T11:30:08.949Z,21.99
2022-10-26T11:33:26.335Z,21.99
2022-10-26T11:36:39.063Z,21.72
2022-10-26T11:39:56.279Z,22.19
2022-10-26T11:43:18.826Z,22.33
2022-10-26T11:46:37.373Z,22.43
2022-10-26T11:49:56.875Z,22.86
2022-10-26T11:53:15.677Z,22.04
2022-10-26T11:56:41.140Z,21.54
2022-10-26T11:59:57.537Z,21.83
2022-10-26T12:03:14.915Z,21.78
2022-10-26T12:06:28.579Z,21.88
2022-10-26T12:09:41.912Z,21.77
2022-10-26T12:13:07.769Z,22.14
2022-10-26T12:16:36.153Z,22.23
2022-10-26T12:19:53.531Z,22.08
2022-10-26T12:23:00.087Z,22.43
2022-10-26T12:26:53.382Z,22.21
2022-10-26T12:30:36.937Z,22.29
2022-10-26T12:33:55.431Z,21.82
2022-10-26T12:37:32.838Z,21.26
2022-10-26T12:40:46.163Z,21.52
2022-10-26T12:43:52.291Z,22.09
2022-10-26T12:46:57.892Z,21.15
2022-10-26T12:50:26.729Z,19.97
2022-10-26T12:53:32.864Z,18.65
2022-10-26T12:56:54.057Z,17.95
2022-10-26T13:00:08.160Z,17.95
2022-10-26T13:03:35.687Z,17.97
2022-10-26T13:07:09.436Z,18.51
2022-10-26T13:10:27.603Z,18.82
2022-10-26T13:13:37.034Z,19.07
2022-10-26T13:16:50.081Z,18.99
2022-10-26T13:20:03.538Z,18.95
2022-10-26T13:23:29.911Z,18.55
2022-10-26T13:27:11.175Z,18.18
2022-10-26T13:30:53.799Z,17.84
2022-10-26T13:34:05.462Z,17.54
2022-10-26T13:37:27.429Z,17.20
2022-10-26T13:40:39.623Z,16.90
2022-10-26T13:43:49.170Z,16.50
2022-10-26T13:47:04.881Z,16.58
2022-10-26T13:50:22.595Z,16.50
2022-10-26T13:53:43.026Z,16.20
2022-10-26T13:57:08.724Z,16.20
2022-10-26T14:00:24.222Z,16.02
2022-10-26T14:03:30.383Z,16.16
2022-10-26T14:06:43.232Z,16.17
2022-10-26T14:09:57.907Z,16.13
2022-10-26T14:13:15.185Z,16.27
2022-10-26T14:16:31.537Z,16.29
2022-10-26T14:19:42.759Z,16.31
2022-10-26T14:22:51.376Z,16.40
2022-10-26T14:25:59.418Z,16.36
2022-10-26T14:29:17.718Z,16.30
2022-10-26T14:32:25.465Z,16.25
2022-10-26T14:35:42.233Z,16.06
2022-10-26T14:38:59.823Z,16.09
2022-10-26T14:42:29.220Z,16.01
2022-10-26T14:45:48.431Z,15.95
2022-10-26T14:48:59.614Z,16.00
2022-10-26T14:52:10.230Z,15.86
2022-10-26T14:55:19.974Z,15.81
2022-10-26T14:58:32.299Z,15.77
2022-10-26T15:01:56.302Z,15.54
2022-10-26T15:05:05.321Z,15.51
2022-10-26T15:08:57.057Z,15.42
2022-10-26T15:12:05.926Z,15.36
2022-10-26T15:15:24.223Z,15.31
2022-10-26T15:18:40.094Z,15.28
2022-10-26T15:21:51.596Z,15.19
2022-10-26T15:25:06.640Z,15.16
2022-10-26T15:28:14.693Z,15.05
2022-10-26T15:31:36.189Z,14.98
2022-10-26T15:34:44.495Z,14.87
2022-10-26T15:37:51.146Z,14.77
2022-10-26T15:40:59.157Z,14.63
2022-10-26T15:44:10.223Z,14.49
2022-10-26T15:47:24.803Z,14.29
2022-10-26T15:50:35.586Z,14.06
2022-10-26T15:53:43.787Z,13.79
2022-10-26T15:56:49.479Z,13.37
2022-10-26T15:59:55.141Z,12.88
2022-10-26T16:03:00.828Z,12.64
2022-10-26T16:06:21.628Z,12.56
2022-10-26T16:09:27.202Z,12.58
2022-10-26T16:12:39.571Z,12.60
2022-10-26T16:15:46.550Z,12.66
2022-10-26T16:19:18.420Z,12.64
2022-10-26T16:22:27.658Z,12.56
2022-10-26T16:25:33.219Z,12.44
2022-10-26T16:28:40.169Z,12.22
2022-10-26T16:31:46.154Z,12.00
2022-10-26T16:34:51.803Z,12.11
2022-10-26T16:38:00.071Z,12.13
2022-10-26T16:41:14.052Z,12.02
2022-10-26T16:44:19.781Z,11.98
2022-10-26T16:47:25.538Z,11.94
2022-10-26T16:50:35.503Z,11.78
2022-10-26T16:53:49.221Z,11.66
2022-10-26T16:56:55.999Z,11.22
2022-10-26T17:00:01.778Z,11.28
2022-10-26T17:03:07.921Z,11.31
2022-10-26T17:06:14.597Z,11.37
2022-10-26T17:09:28.869Z,11.15
2022-10-26T17:12:43.254Z,11.23
2022-10-26T17:15:49.394Z,11.19
2022-10-26T17:18:56.865Z,11.05
2022-10-26T17:22:08.979Z,11.24
2022-10-26T17:25:19.431Z,11.00
2022-10-26T17:28:25.181Z,11.03
2022-10-26T17:31:31.205Z,11.19
2022-10-26T17:34:37.259Z,11.05
2022-10-26T17:37:42.946Z,10.97
2022-10-26T17:40:53.917Z,10.95
2022-10-26T17:43:59.896Z,11.11
2022-10-26T17:47:05.757Z,10.93
2022-10-26T17:50:13.193Z,10.95
2022-10-26T17:53:19.640Z,10.75
2022-10-26T17:56:30.746Z,10.80
2022-10-26T17:59:36.583Z,10.87
2022-10-26T18:02:42.613Z,10.98
2022-10-26T18:05:56.275Z,11.01
2022-10-26T18:09:02.300Z,11.01
2022-10-26T18:12:10.943Z,11.06
2022-10-26T18:15:17.043Z,11.06
2022-10-26T18:18:22.830Z,10.89
2022-10-26T18:21:29.109Z,10.87
2022-10-26T18:24:34.843Z,10.89
2022-10-26T18:27:43.135Z,10.87
2022-10-26T18:30:49.015Z,10.93
2022-10-26T18:33:59.272Z,10.92
2022-10-26T18:37:04.952Z,10.78
2022-10-26T18:40:12.845Z,10.70
2022-10-26T18:43:21.183Z,10.72
2022-10-26T18:46:30.234Z,10.73
2022-10-26T18:49:36.085Z,10.77
2022-10-26T18:52:41.853Z,10.81
2022-10-26T18:55:47.596Z,10.80
2022-10-26T18:59:00.562Z,10.76
2022-10-26T19:05:32.083Z,10.71
2022-10-26T19:08:37.756Z,10.76
2022-10-26T19:11:44.524Z,10.83
2022-10-26T19:14:52.718Z,10.72
2022-10-26T19:17:59.914Z,10.58
2022-10-26T19:21:10.079Z,10.57
2022-10-26T19:24:19.512Z,10.50
2022-10-26T19:27:25.311Z,10.28
2022-10-26T19:30:33.508Z,10.20
2022-10-26T19:33:39.777Z,10.23
2022-10-26T19:36:47.388Z,10.27
2022-10-26T19:39:53.265Z,10.29
2022-10-26T19:42:58.824Z,10.32
2022-10-26T19:46:16.744Z,10.27
2022-10-26T19:49:25.021Z,10.24
2022-10-26T19:52:30.594Z,10.17
2022-10-26T19:55:36.343Z,10.00
2022-10-26T19:58:43.507Z,9.93
2022-10-26T20:01:53.929Z,9.98
2022-10-26T20:04:59.659Z,9.86
2022-10-26T20:08:05.786Z,9.81
2022-10-26T20:11:15.762Z,9.83
2022-10-26T20:14:21.764Z,9.73
2022-10-26T20:17:29.982Z,9.78
2022-10-26T20:20:38.295Z,9.76
2022-10-26T20:23:46.061Z,9.58
2022-10-26T20:26:51.785Z,9.42
2022-10-26T20:29:57.400Z,9.43
2022-10-26T20:33:09.729Z,9.36
2022-10-26T20:36:15.271Z,9.33
2022-10-26T20:39:29.083Z,9.29
2022-10-26T20:42:35.945Z,9.23
2022-10-26T20:45:42.515Z,9.28
2022-10-26T20:48:52.164Z,9.29
2022-10-26T20:52:20.583Z,9.21
2022-10-26T20:55:37.874Z,9.27
2022-10-26T20:58:48.659Z,9.33
2022-10-26T21:01:54.513Z,9.26
2022-10-26T21:05:03.027Z,9.31
2022-10-26T21:08:08.633Z,9.27
2022-10-26T21:11:14.339Z,9.30
2022-10-26T21:14:19.867Z,9.30
2022-10-26T21:17:26.136Z,9.30
2022-10-26T21:20:34.424Z,9.30
2022-10-26T21:23:43.399Z,9.21
2022-10-26T21:26:49.058Z,9.24
2022-10-26T21:29:54.827Z,9.24
2022-10-26T21:33:00.436Z,9.36
2022-10-26T21:36:12.472Z,9.21
2022-10-26T21:39:18.385Z,9.22
2022-10-26T21:42:24.101Z,9.19
2022-10-26T21:45:29.745Z,9.17
2022-10-26T21:48:37.656Z,9.08
2022-10-26T21:51:59.591Z,8.90
2022-10-26T21:55:09.995Z,8.81
2022-10-26T21:58:21.483Z,8.84
2022-10-26T22:01:27.177Z,8.95
2022-10-26T22:04:39.963Z,8.86
2022-10-26T22:07:53.223Z,8.80
2022-10-26T22:11:10.572Z,8.76
2022-10-26T22:14:23.812Z,8.83
2022-10-26T22:17:29.434Z,8.89
2022-10-26T22:20:35.057Z,8.81
2022-10-26T22:23:46.141Z,8.79
2022-10-26T22:26:52.061Z,8.63
2022-10-26T22:29:57.893Z,8.66
2022-10-26T22:33:03.500Z,8.63
2022-10-26T22:36:12.037Z,8.66
2022-10-26T22:39:20.705Z,8.63
2022-10-26T22:42:26.562Z,8.71
2022-10-26T22:45:32.322Z,8.76
2022-10-26T22:48:38.840Z,8.81
2022-10-26T22:51:44.510Z,8.88
2022-10-26T22:54:52.758Z,8.81
2022-10-26T22:57:58.414Z,8.85
2022-10-26T23:01:08.860Z,8.80
2022-10-26T23:04:15.729Z,8.95
2022-10-26T23:07:27.989Z,8.97
2022-10-26T23:10:39.517Z,8.93
2022-10-26T23:13:45.880Z,9.02
2022-10-26T23:16:51.542Z,8.96
2022-10-26T23:20:17.531Z,9.02
2022-10-26T23:23:23.106Z,9.03
2022-10-26T23:26:31.337Z,9.01
2022-10-26T23:29:49.077Z,8.86
2022-10-26T23:32:54.867Z,8.86
2022-10-26T23:36:08.010Z,8.82
2022-10-26T23:39:14.512Z,8.80
2022-10-26T23:42:22.873Z,8.70
2022-10-26T23:45:28.759Z,8.66
2022-10-26T23:48:34.645Z,8.56
2022-10-26T23:51:40.260Z,8.66
2022-10-26T23:54:45.922Z,8.60
2022-10-26T23:57:54.196Z,8.61
